sensor_id;sensor_type;location;lat;lon;timestamp;pressure;altitude;pressure_sealevel;temperature;humidity
76378;BME280;65200;49.500;8.654;2023-04-24T00:00:55;99404.97;;;11.45;82.71
76378;BME280;65200;49.500;8.654;2023-04-24T00:03:22;99390.09;;;11.49;81.59
76378;BME280;65200;49.500;8.654;2023-04-24T00:05:49;99389.94;;;11.44;82.06
76378;BME280;65200;49.500;8.654;2023-04-24T00:08:16;99383.28;;;11.47;81.04
76378;BME280;65200;49.500;8.654;2023-04-24T00:10:42;99385.56;;;11.50;81.19
76378;BME280;65200;49.500;8.654;2023-04-24T00:13:09;99381.88;;;11.44;80.88
76378;BME280;65200;49.500;8.654;2023-04-24T00:15:36;99379.19;;;11.44;81.51
76378;BME280;65200;49.500;8.654;2023-04-24T00:18:03;99385.41;;;11.45;81.55
76378;BME280;65200;49.500;8.654;2023-04-24T00:20:30;99383.91;;;11.49;80.81
76378;BME280;65200;49.500;8.654;2023-04-24T00:22:57;99383.69;;;11.50;81.14
76378;BME280;65200;49.500;8.654;2023-04-24T00:25:24;99393.22;;;11.46;80.85
76378;BME280;65200;49.500;8.654;2023-04-24T00:27:50;99390.31;;;11.48;81.03
76378;BME280;65200;49.500;8.654;2023-04-24T00:30:16;99390.38;;;11.41;81.93
76378;BME280;65200;49.500;8.654;2023-04-24T00:32:44;99382.72;;;11.45;81.92
76378;BME280;65200;49.500;8.654;2023-04-24T00:35:10;99385.41;;;11.45;81.29
76378;BME280;65200;49.500;8.654;2023-04-24T00:37:37;99378.38;;;11.44;81.77
76378;BME280;65200;49.500;8.654;2023-04-24T00:40:04;99377.75;;;11.42;82.07
76378;BME280;65200;49.500;8.654;2023-04-24T00:42:31;99377.56;;;11.43;82.05
76378;BME280;65200;49.500;8.654;2023-04-24T00:44:58;99376.28;;;11.46;81.80
76378;BME280;65200;49.500;8.654;2023-04-24T00:47:25;99375.63;;;11.50;81.21
76378;BME280;65200;49.500;8.654;2023-04-24T00:49:53;99381.59;;;11.52;81.48
76378;BME280;65200;49.500;8.654;2023-04-24T00:52:19;99377.13;;;11.46;81.26
76378;BME280;65200;49.500;8.654;2023-04-24T00:54:45;99376.00;;;11.54;81.08
76378;BME280;65200;49.500;8.654;2023-04-24T00:57:12;99378.47;;;11.55;80.41
76378;BME280;65200;49.500;8.654;2023-04-24T00:59:40;99386.97;;;11.52;81.44
76378;BME280;65200;49.500;8.654;2023-04-24T01:02:07;99389.22;;;11.55;80.25
76378;BME280;65200;49.500;8.654;2023-04-24T01:04:34;99383.22;;;11.53;81.94
76378;BME280;65200;49.500;8.654;2023-04-24T01:07:03;99388.97;;;11.57;80.37
76378;BME280;65200;49.500;8.654;2023-04-24T01:09:29;99389.22;;;11.55;80.22
76378;BME280;65200;49.500;8.654;2023-04-24T01:11:56;99391.66;;;11.57;81.19
76378;BME280;65200;49.500;8.654;2023-04-24T01:14:22;99382.44;;;11.53;80.95
76378;BME280;65200;49.500;8.654;2023-04-24T01:16:49;99384.06;;;11.54;80.58
76378;BME280;65200;49.500;8.654;2023-04-24T01:19:15;99377.13;;;11.46;81.19
76378;BME280;65200;49.500;8.654;2023-04-24T01:21:43;99379.53;;;11.54;80.47
76378;BME280;65200;49.500;8.654;2023-04-24T01:24:12;99375.91;;;11.42;81.65
76378;BME280;65200;49.500;8.654;2023-04-24T01:26:39;99378.38;;;11.44;81.07
76378;BME280;65200;49.500;8.654;2023-04-24T01:29:05;99376.72;;;11.43;82.20
76378;BME280;65200;49.500;8.654;2023-04-24T01:31:32;99369.56;;;11.37;81.61
76378;BME280;65200;49.500;8.654;2023-04-24T01:33:59;99367.25;;;11.40;82.05
76378;BME280;65200;49.500;8.654;2023-04-24T01:36:27;99382.38;;;11.35;81.26
76378;BME280;65200;49.500;8.654;2023-04-24T01:38:54;99373.09;;;11.31;81.83
76378;BME280;65200;49.500;8.654;2023-04-24T01:41:23;99368.56;;;11.31;82.57
76378;BME280;65200;49.500;8.654;2023-04-24T01:43:50;99372.25;;;11.37;81.66
76378;BME280;65200;49.500;8.654;2023-04-24T01:46:16;99363.59;;;11.35;81.09
76378;BME280;65200;49.500;8.654;2023-04-24T01:48:44;99362.38;;;11.31;82.01
76378;BME280;65200;49.500;8.654;2023-04-24T01:51:11;99360.91;;;11.35;81.67
76378;BME280;65200;49.500;8.654;2023-04-24T01:53:37;99362.53;;;11.36;81.59
76378;BME280;65200;49.500;8.654;2023-04-24T01:56:04;99357.56;;;11.39;81.30
76378;BME280;65200;49.500;8.654;2023-04-24T01:58:32;99360.69;;;11.36;80.40
76378;BME280;65200;49.500;8.654;2023-04-24T02:00:59;99357.34;;;11.41;80.59
76378;BME280;65200;49.500;8.654;2023-04-24T02:03:26;99369.28;;;11.45;81.62
76378;BME280;65200;49.500;8.654;2023-04-24T02:05:52;99357.34;;;11.41;81.12
76378;BME280;65200;49.500;8.654;2023-04-24T02:08:19;99360.84;;;11.41;81.07
76378;BME280;65200;49.500;8.654;2023-04-24T02:10:45;99352.66;;;11.36;81.80
76378;BME280;65200;49.500;8.654;2023-04-24T02:13:11;99348.69;;;11.39;81.22
76378;BME280;65200;49.500;8.654;2023-04-24T02:15:39;99353.84;;;11.40;81.58
76378;BME280;65200;49.500;8.654;2023-04-24T02:18:06;99353.59;;;11.42;80.55
76378;BME280;65200;49.500;8.654;2023-04-24T02:20:33;99353.47;;;11.37;82.20
76378;BME280;65200;49.500;8.654;2023-04-24T02:23:00;99352.59;;;11.43;81.10
76378;BME280;65200;49.500;8.654;2023-04-24T02:25:27;99347.44;;;11.41;81.95
76378;BME280;65200;49.500;8.654;2023-04-24T02:27:53;99351.22;;;11.34;82.00
76378;BME280;65200;49.500;8.654;2023-04-24T02:30:19;99344.44;;;11.31;82.17
76378;BME280;65200;49.500;8.654;2023-04-24T02:32:47;99349.56;;;11.33;82.05
76378;BME280;65200;49.500;8.654;2023-04-24T02:35:14;99340.91;;;11.31;81.03
76378;BME280;65200;49.500;8.654;2023-04-24T02:37:41;99346.06;;;11.32;81.98
76378;BME280;65200;49.500;8.654;2023-04-24T02:40:08;99337.78;;;11.34;81.63
76378;BME280;65200;49.500;8.654;2023-04-24T02:42:35;99347.34;;;11.30;82.60
76378;BME280;65200;49.500;8.654;2023-04-24T02:45:01;99346.72;;;11.28;81.83
76378;BME280;65200;49.500;8.654;2023-04-24T02:47:28;99346.72;;;11.28;82.53
76378;BME280;65200;49.500;8.654;2023-04-24T02:49:55;99354.09;;;11.32;82.24
76378;BME280;65200;49.500;8.654;2023-04-24T02:52:22;99357.00;;;11.31;81.95
76378;BME280;65200;49.500;8.654;2023-04-24T02:54:48;99360.97;;;11.28;81.75
76378;BME280;65200;49.500;8.654;2023-04-24T02:57:15;99364.09;;;11.25;82.96
76378;BME280;65200;49.500;8.654;2023-04-24T02:59:41;99368.19;;;11.28;82.83
76378;BME280;65200;49.500;8.654;2023-04-24T03:02:08;99398.84;;;11.14;84.63
76378;BME280;65200;49.500;8.654;2023-04-24T03:04:34;99396.13;;;10.89;87.22
76378;BME280;65200;49.500;8.654;2023-04-24T03:07:02;99432.75;;;10.57;90.10
76378;BME280;65200;49.500;8.654;2023-04-24T03:09:29;99436.34;;;10.38;92.04
76378;BME280;65200;49.500;8.654;2023-04-24T03:11:56;99428.97;;;10.27;92.71
76378;BME280;65200;49.500;8.654;2023-04-24T03:14:23;99441.34;;;10.09;91.07
76378;BME280;65200;49.500;8.654;2023-04-24T03:16:49;99431.47;;;9.96;90.86
76378;BME280;65200;49.500;8.654;2023-04-24T03:19:16;99442.19;;;9.83;90.64
76378;BME280;65200;49.500;8.654;2023-04-24T03:21:42;99444.25;;;9.81;91.90
76378;BME280;65200;49.500;8.654;2023-04-24T03:24:10;99437.91;;;9.76;91.29
76378;BME280;65200;49.500;8.654;2023-04-24T03:26:36;99443.84;;;9.71;92.85
76378;BME280;65200;49.500;8.654;2023-04-24T03:29:03;99436.66;;;9.71;93.39
76378;BME280;65200;49.500;8.654;2023-04-24T03:31:29;99432.13;;;9.72;93.15
76378;BME280;65200;49.500;8.654;2023-04-24T03:33:56;99421.84;;;9.62;94.42
76378;BME280;65200;49.500;8.654;2023-04-24T03:36:22;99427.78;;;9.64;94.12
76378;BME280;65200;49.500;8.654;2023-04-24T03:38:48;99429.03;;;9.68;94.23
76378;BME280;65200;49.500;8.654;2023-04-24T03:41:16;99432.94;;;9.66;94.82
76378;BME280;65200;49.500;8.654;2023-04-24T03:43:42;99431.09;;;9.66;94.75
76378;BME280;65200;49.500;8.654;2023-04-24T03:46:09;99427.59;;;9.66;93.95
76378;BME280;65200;49.500;8.654;2023-04-24T03:48:36;99436.03;;;9.63;93.16
76378;BME280;65200;49.500;8.654;2023-04-24T03:51:02;99431.31;;;9.58;91.88
76378;BME280;65200;49.500;8.654;2023-04-24T03:53:29;99435.81;;;9.58;93.47
76378;BME280;65200;49.500;8.654;2023-04-24T03:55:55;99445.50;;;9.59;93.25
76378;BME280;65200;49.500;8.654;2023-04-24T03:58:23;99449.81;;;9.60;93.51
76378;BME280;65200;49.500;8.654;2023-04-24T04:00:50;99451.50;;;9.61;93.33
76378;BME280;65200;49.500;8.654;2023-04-24T04:03:16;99464.44;;;9.64;93.45
76378;BME280;65200;49.500;8.654;2023-04-24T04:05:42;99475.56;;;9.61;92.93
76378;BME280;65200;49.500;8.654;2023-04-24T04:08:09;99472.25;;;9.59;93.76
76378;BME280;65200;49.500;8.654;2023-04-24T04:10:35;99472.47;;;9.51;94.87
76378;BME280;65200;49.500;8.654;2023-04-24T04:13:02;99487.28;;;9.53;94.25
76378;BME280;65200;49.500;8.654;2023-04-24T04:15:29;99481.09;;;9.53;94.19
76378;BME280;65200;49.500;8.654;2023-04-24T04:17:56;99488.31;;;9.46;94.10
76378;BME280;65200;49.500;8.654;2023-04-24T04:20:22;99489.72;;;9.42;92.92
76378;BME280;65200;49.500;8.654;2023-04-24T04:22:49;99487.47;;;9.39;93.45
76378;BME280;65200;49.500;8.654;2023-04-24T04:25:17;99498.38;;;9.44;92.55
76378;BME280;65200;49.500;8.654;2023-04-24T04:27:44;99505.97;;;9.34;93.18
76378;BME280;65200;49.500;8.654;2023-04-24T04:30:13;99495.47;;;9.26;92.93
76378;BME280;65200;49.500;8.654;2023-04-24T04:32:41;99497.28;;;9.19;93.50
76378;BME280;65200;49.500;8.654;2023-04-24T04:35:07;99500.16;;;9.11;94.07
76378;BME280;65200;49.500;8.654;2023-04-24T04:37:34;99509.63;;;9.13;92.21
76378;BME280;65200;49.500;8.654;2023-04-24T04:40:02;99507.16;;;9.12;92.15
76378;BME280;65200;49.500;8.654;2023-04-24T04:42:31;99510.41;;;9.01;91.28
76378;BME280;65200;49.500;8.654;2023-04-24T04:44:57;99514.94;;;9.00;92.21
76378;BME280;65200;49.500;8.654;2023-04-24T04:47:24;99515.53;;;8.96;92.79
76378;BME280;65200;49.500;8.654;2023-04-24T04:49:53;99524.97;;;8.92;91.88
76378;BME280;65200;49.500;8.654;2023-04-24T04:52:19;99527.22;;;8.95;93.82
76378;BME280;65200;49.500;8.654;2023-04-24T04:54:50;99525.41;;;8.95;94.02
76378;BME280;65200;49.500;8.654;2023-04-24T04:57:16;99524.34;;;8.96;92.54
76378;BME280;65200;49.500;8.654;2023-04-24T04:59:42;99537.75;;;9.03;92.23
76378;BME280;65200;49.500;8.654;2023-04-24T05:02:09;99537.16;;;9.01;92.28
76378;BME280;65200;49.500;8.654;2023-04-24T05:04:35;99534.88;;;9.04;89.72
76378;BME280;65200;49.500;8.654;2023-04-24T05:07:03;99536.13;;;9.02;88.92
76378;BME280;65200;49.500;8.654;2023-04-24T05:09:30;99544.53;;;8.99;89.14
76378;BME280;65200;49.500;8.654;2023-04-24T05:11:57;99548.03;;;8.99;87.32
76378;BME280;65200;49.500;8.654;2023-04-24T05:14:23;99551.94;;;9.03;88.11
76378;BME280;65200;49.500;8.654;2023-04-24T05:16:50;99541.84;;;8.99;86.72
76378;BME280;65200;49.500;8.654;2023-04-24T05:19:16;99547.63;;;9.02;85.86
76378;BME280;65200;49.500;8.654;2023-04-24T05:21:42;99552.00;;;9.16;86.68
76378;BME280;65200;49.500;8.654;2023-04-24T05:24:10;99548.47;;;9.16;87.63
76378;BME280;65200;49.500;8.654;2023-04-24T05:26:36;99561.66;;;9.24;87.61
76378;BME280;65200;49.500;8.654;2023-04-24T05:29:03;99554.50;;;9.31;86.97
76378;BME280;65200;49.500;8.654;2023-04-24T05:31:30;99558.81;;;9.38;88.64
76378;BME280;65200;49.500;8.654;2023-04-24T05:33:57;99570.38;;;9.52;86.38
76378;BME280;65200;49.500;8.654;2023-04-24T05:36:23;99570.19;;;9.60;85.55
76378;BME280;65200;49.500;8.654;2023-04-24T05:38:49;99555.84;;;9.74;86.50
76378;BME280;65200;49.500;8.654;2023-04-24T05:41:17;99562.41;;;9.78;85.40
76378;BME280;65200;49.500;8.654;2023-04-24T05:43:44;99561.56;;;9.71;84.92
76378;BME280;65200;49.500;8.654;2023-04-24T05:46:11;99563.66;;;9.69;82.96
76378;BME280;65200;49.500;8.654;2023-04-24T05:48:37;99571.47;;;9.64;83.14
76378;BME280;65200;49.500;8.654;2023-04-24T05:51:04;99580.91;;;9.60;83.70
76378;BME280;65200;49.500;8.654;2023-04-24T05:53:31;99584.22;;;9.68;84.73
76378;BME280;65200;49.500;8.654;2023-04-24T05:55:58;99585.44;;;9.79;84.76
76378;BME280;65200;49.500;8.654;2023-04-24T05:58:26;99593.28;;;9.74;84.30
76378;BME280;65200;49.500;8.654;2023-04-24T06:00:52;99588.72;;;9.68;83.90
76378;BME280;65200;49.500;8.654;2023-04-24T06:03:21;99600.88;;;9.64;84.28
76378;BME280;65200;49.500;8.654;2023-04-24T06:05:49;99596.56;;;9.69;85.59
76378;BME280;65200;49.500;8.654;2023-04-24T06:08:16;99589.19;;;9.85;83.38
76378;BME280;65200;49.500;8.654;2023-04-24T06:10:42;99588.34;;;9.97;83.50
76378;BME280;65200;49.500;8.654;2023-04-24T06:13:08;99599.69;;;10.06;79.95
76378;BME280;65200;49.500;8.654;2023-04-24T06:15:37;99593.16;;;10.08;80.34
76378;BME280;65200;49.500;8.654;2023-04-24T06:18:04;99590.59;;;9.94;80.84
76378;BME280;65200;49.500;8.654;2023-04-24T06:20:30;99588.56;;;9.89;78.83
76378;BME280;65200;49.500;8.654;2023-04-24T06:22:57;99597.84;;;9.87;81.01
76378;BME280;65200;49.500;8.654;2023-04-24T06:25:25;99603.59;;;9.84;81.06
76378;BME280;65200;49.500;8.654;2023-04-24T06:27:51;99604.81;;;9.94;80.01
76378;BME280;65200;49.500;8.654;2023-04-24T06:30:18;99606.09;;;9.98;82.66
76378;BME280;65200;49.500;8.654;2023-04-24T06:32:46;99609.22;;;10.08;81.06
76378;BME280;65200;49.500;8.654;2023-04-24T06:35:12;99612.84;;;9.94;82.00
76378;BME280;65200;49.500;8.654;2023-04-24T06:37:39;99605.44;;;9.90;81.85
76378;BME280;65200;49.500;8.654;2023-04-24T06:40:06;99621.72;;;9.88;81.59
76378;BME280;65200;49.500;8.654;2023-04-24T06:42:32;99618.38;;;9.73;82.36
76378;BME280;65200;49.500;8.654;2023-04-24T06:45:00;99629.91;;;9.67;83.85
76378;BME280;65200;49.500;8.654;2023-04-24T06:47:27;99634.81;;;9.63;83.33
76378;BME280;65200;49.500;8.654;2023-04-24T06:49:55;99636.91;;;9.68;82.89
76378;BME280;65200;49.500;8.654;2023-04-24T06:52:21;99637.91;;;9.60;84.00
76378;BME280;65200;49.500;8.654;2023-04-24T06:54:48;99631.50;;;9.55;84.48
76378;BME280;65200;49.500;8.654;2023-04-24T06:57:14;99641.56;;;9.53;83.92
76378;BME280;65200;49.500;8.654;2023-04-24T06:59:42;99640.38;;;9.55;85.53
76378;BME280;65200;49.500;8.654;2023-04-24T07:02:08;99640.78;;;9.59;84.37
76378;BME280;65200;49.500;8.654;2023-04-24T07:04:35;99653.09;;;9.47;84.03
76378;BME280;65200;49.500;8.654;2023-04-24T07:07:03;99642.34;;;9.40;83.05
76378;BME280;65200;49.500;8.654;2023-04-24T07:09:29;99650.56;;;9.32;84.11
76378;BME280;65200;49.500;8.654;2023-04-24T07:11:56;99642.34;;;9.34;84.84
76378;BME280;65200;49.500;8.654;2023-04-24T07:14:22;99644.22;;;9.46;84.13
76378;BME280;65200;49.500;8.654;2023-04-24T07:16:49;99648.78;;;9.46;84.14
76378;BME280;65200;49.500;8.654;2023-04-24T07:19:15;99646.38;;;9.64;82.93
76378;BME280;65200;49.500;8.654;2023-04-24T07:21:43;99665.28;;;9.56;79.10
76378;BME280;65200;49.500;8.654;2023-04-24T07:24:11;99670.41;;;9.57;81.52
76378;BME280;65200;49.500;8.654;2023-04-24T07:26:38;99665.81;;;9.45;77.13
76378;BME280;65200;49.500;8.654;2023-04-24T07:29:05;99674.66;;;9.39;79.33
76378;BME280;65200;49.500;8.654;2023-04-24T07:31:31;99678.78;;;9.41;79.09
76378;BME280;65200;49.500;8.654;2023-04-24T07:33:58;99672.31;;;9.70;79.37
76378;BME280;65200;49.500;8.654;2023-04-24T07:36:24;99679.16;;;9.99;77.33
76378;BME280;65200;49.500;8.654;2023-04-24T07:38:51;99679.16;;;10.05;77.09
76378;BME280;65200;49.500;8.654;2023-04-24T07:41:19;99684.31;;;10.00;75.76
76378;BME280;65200;49.500;8.654;2023-04-24T07:43:45;99678.56;;;10.03;75.03
76378;BME280;65200;49.500;8.654;2023-04-24T07:46:12;99668.44;;;9.99;77.10
76378;BME280;65200;49.500;8.654;2023-04-24T07:48:38;99676.09;;;9.95;76.05
76378;BME280;65200;49.500;8.654;2023-04-24T07:51:05;99671.50;;;9.83;76.13
76378;BME280;65200;49.500;8.654;2023-04-24T07:53:31;99661.66;;;9.96;77.31
76378;BME280;65200;49.500;8.654;2023-04-24T07:55:58;99671.53;;;9.89;75.95
76378;BME280;65200;49.500;8.654;2023-04-24T07:58:25;99669.06;;;9.94;76.07
76378;BME280;65200;49.500;8.654;2023-04-24T08:00:52;99660.69;;;10.43;74.41
76378;BME280;65200;49.500;8.654;2023-04-24T08:03:18;99673.03;;;11.53;69.57
76378;BME280;65200;49.500;8.654;2023-04-24T08:05:45;99666.25;;;12.51;65.88
76378;BME280;65200;49.500;8.654;2023-04-24T08:08:12;99676.19;;;12.75;67.47
76378;BME280;65200;49.500;8.654;2023-04-24T08:10:38;99682.09;;;12.83;66.76
76378;BME280;65200;49.500;8.654;2023-04-24T08:13:05;99687.66;;;12.08;67.83
76378;BME280;65200;49.500;8.654;2023-04-24T08:15:33;99692.44;;;11.55;72.07
76378;BME280;65200;49.500;8.654;2023-04-24T08:18:00;99689.06;;;11.16;72.11
76378;BME280;65200;49.500;8.654;2023-04-24T08:20:26;99697.75;;;10.98;72.88
76378;BME280;65200;49.500;8.654;2023-04-24T08:22:53;99695.06;;;11.04;70.80
76378;BME280;65200;49.500;8.654;2023-04-24T08:25:19;99705.38;;;10.94;72.18
76378;BME280;65200;49.500;8.654;2023-04-24T08:27:48;99702.88;;;11.13;69.08
76378;BME280;65200;49.500;8.654;2023-04-24T08:30:14;99708.44;;;11.18;67.88
76378;BME280;65200;49.500;8.654;2023-04-24T08:32:42;99718.78;;;11.01;67.75
76378;BME280;65200;49.500;8.654;2023-04-24T08:35:09;99716.53;;;10.91;67.81
76378;BME280;65200;49.500;8.654;2023-04-24T08:37:36;99715.94;;;10.89;68.64
76378;BME280;65200;49.500;8.654;2023-04-24T08:40:06;99711.16;;;10.91;67.24
76378;BME280;65200;49.500;8.654;2023-04-24T08:42:34;99714.03;;;11.03;66.62
76378;BME280;65200;49.500;8.654;2023-04-24T08:45:03;99714.22;;;11.28;65.93
76378;BME280;65200;49.500;8.654;2023-04-24T08:47:31;99726.78;;;11.27;64.35
76378;BME280;65200;49.500;8.654;2023-04-24T08:50:02;99729.69;;;12.27;62.13
76378;BME280;65200;49.500;8.654;2023-04-24T08:52:32;99740.84;;;11.93;62.67
76378;BME280;65200;49.500;8.654;2023-04-24T08:54:59;99746.53;;;12.09;63.01
76378;BME280;65200;49.500;8.654;2023-04-24T08:57:26;99741.88;;;11.92;61.81
76378;BME280;65200;49.500;8.654;2023-04-24T08:59:53;99747.84;;;11.94;61.48
76378;BME280;65200;49.500;8.654;2023-04-24T09:02:20;99739.50;;;11.71;61.80
76378;BME280;65200;49.500;8.654;2023-04-24T09:04:47;99752.75;;;11.46;63.08
76378;BME280;65200;49.500;8.654;2023-04-24T09:07:16;99740.84;;;11.23;63.74
76378;BME280;65200;49.500;8.654;2023-04-24T09:09:44;99742.13;;;11.00;66.29
76378;BME280;65200;49.500;8.654;2023-04-24T09:12:11;99757.59;;;10.92;67.92
76378;BME280;65200;49.500;8.654;2023-04-24T09:14:37;99757.78;;;10.84;69.22
76378;BME280;65200;49.500;8.654;2023-04-24T09:17:08;99762.09;;;10.91;69.63
76378;BME280;65200;49.500;8.654;2023-04-24T09:19:34;99762.75;;;10.87;69.41
76378;BME280;65200;49.500;8.654;2023-04-24T09:22:04;99761.09;;;10.79;67.53
76378;BME280;65200;49.500;8.654;2023-04-24T09:24:34;99774.50;;;10.73;68.85
76378;BME280;65200;49.500;8.654;2023-04-24T09:27:01;99766.03;;;10.69;68.60
76378;BME280;65200;49.500;8.654;2023-04-24T09:29:27;99773.03;;;10.64;68.57
76378;BME280;65200;49.500;8.654;2023-04-24T09:31:54;99767.47;;;10.72;68.05
76378;BME280;65200;49.500;8.654;2023-04-24T09:34:21;99768.09;;;10.93;68.03
76378;BME280;65200;49.500;8.654;2023-04-24T09:36:48;99772.63;;;10.99;66.75
76378;BME280;65200;49.500;8.654;2023-04-24T09:39:16;99770.34;;;10.96;66.70
76378;BME280;65200;49.500;8.654;2023-04-24T09:41:48;99784.38;;;11.12;67.85
76378;BME280;65200;49.500;8.654;2023-04-24T09:44:17;99780.44;;;11.27;66.37
76378;BME280;65200;49.500;8.654;2023-04-24T09:46:45;99796.16;;;11.24;67.59
76378;BME280;65200;49.500;8.654;2023-04-24T09:49:13;99784.97;;;11.33;66.50
76378;BME280;65200;49.500;8.654;2023-04-24T09:51:40;99791.16;;;11.21;66.09
76378;BME280;65200;49.500;8.654;2023-04-24T09:54:13;99781.72;;;11.05;66.07
76378;BME280;65200;49.500;8.654;2023-04-24T09:56:43;99801.53;;;11.11;66.36
76378;BME280;65200;49.500;8.654;2023-04-24T09:59:11;99800.91;;;11.08;65.70
76378;BME280;65200;49.500;8.654;2023-04-24T10:01:38;99802.75;;;11.08;64.10
76378;BME280;65200;49.500;8.654;2023-04-24T10:04:15;99796.53;;;11.07;64.86
76378;BME280;65200;49.500;8.654;2023-04-24T10:06:42;99799.03;;;11.09;65.09
76378;BME280;65200;49.500;8.654;2023-04-24T10:09:09;99807.88;;;11.16;65.95
76378;BME280;65200;49.500;8.654;2023-04-24T10:11:37;99803.16;;;11.12;64.26
76378;BME280;65200;49.500;8.654;2023-04-24T10:14:09;99814.72;;;11.19;63.32
76378;BME280;65200;49.500;8.654;2023-04-24T10:16:37;99811.56;;;11.61;63.93
76378;BME280;65200;49.500;8.654;2023-04-24T10:19:04;99804.72;;;11.71;61.82
76378;BME280;65200;49.500;8.654;2023-04-24T10:21:31;99820.44;;;11.68;62.04
76378;BME280;65200;49.500;8.654;2023-04-24T10:23:58;99815.91;;;11.49;62.53
76378;BME280;65200;49.500;8.654;2023-04-24T10:26:32;99824.59;;;11.31;65.72
76378;BME280;65200;49.500;8.654;2023-04-24T10:28:59;99831.81;;;11.18;64.70
76378;BME280;65200;49.500;8.654;2023-04-24T10:31:26;99830.19;;;11.17;65.03
76378;BME280;65200;49.500;8.654;2023-04-24T10:33:55;99829.75;;;11.33;66.06
76378;BME280;65200;49.500;8.654;2023-04-24T10:36:22;99824.59;;;11.44;65.39
76378;BME280;65200;49.500;8.654;2023-04-24T10:38:52;99826.63;;;11.68;63.72
76378;BME280;65200;49.500;8.654;2023-04-24T10:41:21;99854.94;;;11.71;63.98
76378;BME280;65200;49.500;8.654;2023-04-24T10:44:04;99841.38;;;12.03;63.71
76378;BME280;65200;49.500;8.654;2023-04-24T10:46:32;99847.66;;;12.35;63.06
76378;BME280;65200;49.500;8.654;2023-04-24T10:49:03;99841.06;;;12.69;61.91
76378;BME280;65200;49.500;8.654;2023-04-24T10:51:47;99851.47;;;12.21;61.96
76378;BME280;65200;49.500;8.654;2023-04-24T10:54:26;99847.59;;;12.04;64.58
76378;BME280;65200;49.500;8.654;2023-04-24T10:56:53;99854.50;;;11.61;64.55
76378;BME280;65200;49.500;8.654;2023-04-24T10:59:26;99859.03;;;11.54;66.15
76378;BME280;65200;49.500;8.654;2023-04-24T11:01:54;99846.25;;;11.43;65.37
76378;BME280;65200;49.500;8.654;2023-04-24T11:04:32;99854.94;;;11.38;66.19
76378;BME280;65200;49.500;8.654;2023-04-24T11:07:00;99858.63;;;11.50;66.24
76378;BME280;65200;49.500;8.654;2023-04-24T11:09:28;99853.69;;;11.41;65.23
76378;BME280;65200;49.500;8.654;2023-04-24T11:12:03;99865.03;;;11.43;65.88
76378;BME280;65200;49.500;8.654;2023-04-24T11:15:01;99854.53;;;11.41;65.54
76378;BME280;65200;49.500;8.654;2023-04-24T11:17:31;99856.34;;;11.60;66.15
76378;BME280;65200;49.500;8.654;2023-04-24T11:20:03;99860.09;;;11.66;65.64
76378;BME280;65200;49.500;8.654;2023-04-24T11:22:33;99852.63;;;11.68;65.66
76378;BME280;65200;49.500;8.654;2023-04-24T11:25:01;99862.97;;;11.58;64.65
76378;BME280;65200;49.500;8.654;2023-04-24T11:27:30;99845.44;;;11.42;65.39
76378;BME280;65200;49.500;8.654;2023-04-24T11:30:00;99859.06;;;11.28;64.63
76378;BME280;65200;49.500;8.654;2023-04-24T11:32:29;99862.97;;;11.58;65.11
76378;BME280;65200;49.500;8.654;2023-04-24T11:34:57;99863.34;;;11.81;66.30
76378;BME280;65200;49.500;8.654;2023-04-24T11:37:26;99866.59;;;12.09;64.17
76378;BME280;65200;49.500;8.654;2023-04-24T11:39:54;99876.16;;;11.92;64.94
76378;BME280;65200;49.500;8.654;2023-04-24T11:42:21;99871.06;;;12.21;65.08
76378;BME280;65200;49.500;8.654;2023-04-24T11:44:49;99864.88;;;12.27;64.24
76378;BME280;65200;49.500;8.654;2023-04-24T11:47:15;99862.81;;;12.16;62.57
76378;BME280;65200;49.500;8.654;2023-04-24T11:49:42;99870.69;;;12.18;62.05
76378;BME280;65200;49.500;8.654;2023-04-24T11:52:08;99866.66;;;12.40;62.61
76378;BME280;65200;49.500;8.654;2023-04-24T11:54:37;99868.75;;;12.31;63.45
76378;BME280;65200;49.500;8.654;2023-04-24T11:57:04;99870.69;;;12.18;60.70
76378;BME280;65200;49.500;8.654;2023-04-24T11:59:35;99869.50;;;12.01;62.27
76378;BME280;65200;49.500;8.654;2023-04-24T12:02:02;99864.34;;;11.99;64.74
76378;BME280;65200;49.500;8.654;2023-04-24T12:04:38;99875.94;;;11.93;62.15
76378;BME280;65200;49.500;8.654;2023-04-24T12:07:05;99882.56;;;11.78;62.70
76378;BME280;65200;49.500;8.654;2023-04-24T12:09:46;99873.84;;;11.89;61.64
76378;BME280;65200;49.500;8.654;2023-04-24T12:12:13;99882.53;;;11.97;63.03
76378;BME280;65200;49.500;8.654;2023-04-24T12:14:47;99870.75;;;11.98;60.96
76378;BME280;65200;49.500;8.654;2023-04-24T12:17:14;99865.63;;;12.41;59.19
76378;BME280;65200;49.500;8.654;2023-04-24T12:19:45;99864.81;;;13.34;58.31
76378;BME280;65200;49.500;8.654;2023-04-24T12:22:12;99873.28;;;13.62;55.84
76378;BME280;65200;49.500;8.654;2023-04-24T12:24:58;99867.41;;;13.90;56.73
76378;BME280;65200;49.500;8.654;2023-04-24T12:27:25;99871.59;;;14.58;56.11
76378;BME280;65200;49.500;8.654;2023-04-24T12:29:52;99867.94;;;14.16;56.06
76378;BME280;65200;49.500;8.654;2023-04-24T12:32:19;99862.25;;;14.06;57.38
76378;BME280;65200;49.500;8.654;2023-04-24T12:34:46;99864.09;;;13.88;56.04
76378;BME280;65200;49.500;8.654;2023-04-24T12:37:12;99873.91;;;13.39;57.32
76378;BME280;65200;49.500;8.654;2023-04-24T12:39:38;99871.63;;;12.81;57.42
76378;BME280;65200;49.500;8.654;2023-04-24T12:42:12;99874.66;;;12.53;60.83
76378;BME280;65200;49.500;8.654;2023-04-24T12:44:39;99869.34;;;12.40;59.81
76378;BME280;65200;49.500;8.654;2023-04-24T12:47:05;99859.69;;;12.32;61.18
76378;BME280;65200;49.500;8.654;2023-04-24T12:49:32;99871.44;;;12.31;61.19
76378;BME280;65200;49.500;8.654;2023-04-24T12:51:58;99874.09;;;12.38;60.33
76378;BME280;65200;49.500;8.654;2023-04-24T12:54:25;99871.69;;;12.23;61.20
76378;BME280;65200;49.500;8.654;2023-04-24T12:56:52;99873.34;;;12.31;61.92
76378;BME280;65200;49.500;8.654;2023-04-24T12:59:19;99877.91;;;12.24;60.75
76378;BME280;65200;49.500;8.654;2023-04-24T13:01:46;99877.63;;;12.38;60.05
76378;BME280;65200;49.500;8.654;2023-04-24T13:04:12;99883.03;;;12.32;60.29
76378;BME280;65200;49.500;8.654;2023-04-24T13:06:39;99869.78;;;12.37;59.35